Time;durP1;ratioP1;P1;durP2;ratioP2;P2;SDS_P1;SDS_P2;PMS_P1;PMS_P2;Temp;Humidity;BMP_temperature;BMP_pressure;BME280_temperature;BME280_humidity;BME280_pressure;Samples;Min_cycle;Max_cycle;Signal;HPM_P1;HPM_P2
2022/12/03 00:00:32;;;;;;;;;;;24.70;90.50;;;;;;5069314;28;19998;-72
2022/12/03 00:02:59;;;;;;;;;;;24.60;90.70;;;;;;5071389;28;19908;-72
2022/12/03 00:05:28;;;;;;;;;;;24.90;91.20;;;;;;5074381;28;19912;-72
2022/12/03 00:07:55;;;;;;;;;;;24.90;90.90;;;;;;5071805;28;20275;-70
2022/12/03 00:10:22;;;;;;;;;;;25.00;91.00;;;;;;5064806;28;20325;-72
2022/12/03 00:12:49;;;;;;;;;;;25.50;91.50;;;;;;5074342;28;19960;-71
2022/12/03 00:15:15;;;;;;;;;;;26.10;89.10;;;;;;5068079;28;19991;-70
2022/12/03 00:17:42;;;;;;;;;;;26.90;89.10;;;;;;5071418;28;19912;-71
2022/12/03 00:20:10;;;;;;;;;;;27.80;87.30;;;;;;5070676;28;19925;-69
2022/12/03 00:22:37;;;;;;;;;;;28.10;85.40;;;;;;5071427;28;19920;-70
2022/12/03 00:25:04;;;;;;;;;;;28.60;88.70;;;;;;5071160;28;20398;-71
2022/12/03 00:27:30;;;;;;;;;;;29.00;87.60;;;;;;5070842;28;19923;-69
2022/12/03 00:29:57;;;;;;;;;;;29.40;85.90;;;;;;5062991;28;20275;-74
2022/12/03 00:32:24;;;;;;;;;;;29.70;85.30;;;;;;5072889;28;20670;-70
2022/12/03 00:34:51;;;;;;;;;;;29.40;83.50;;;;;;5072793;28;20283;-72
2022/12/03 00:37:18;;;;;;;;;;;29.00;84.30;;;;;;5074039;28;19919;-70
2022/12/03 00:39:45;;;;;;;;;;;28.90;84.90;;;;;;5061688;28;20039;-72
2022/12/03 00:42:11;;;;;;;;;;;29.20;85.30;;;;;;5068554;28;19962;-70
2022/12/03 00:44:38;;;;;;;;;;;29.20;83.40;;;;;;5067125;28;20263;-72
2022/12/03 00:47:05;;;;;;;;;;;29.50;85.00;;;;;;5071770;28;20430;-71
2022/12/03 00:49:31;;;;;;;;;;;29.70;82.90;;;;;;5072159;28;19951;-70
2022/12/03 00:51:58;;;;;;;;;;;30.10;83.10;;;;;;5071525;28;20381;-71
2022/12/03 00:54:25;;;;;;;;;;;30.50;83.50;;;;;;5064155;28;19934;-72
2022/12/03 00:56:51;;;;;;;;;;;30.80;82.90;;;;;;5065267;28;19913;-72
2022/12/03 00:59:18;;;;;;;;;;;30.80;81.40;;;;;;5068539;28;20351;-71
2022/12/03 01:01:45;;;;;;;;;;;29.80;77.60;;;;;;5068713;28;19920;-70
2022/12/03 01:04:12;;;;;;;;;;;28.70;79.60;;;;;;5071898;28;19913;-71
2022/12/03 01:06:38;;;;;;;;;;;28.00;81.40;;;;;;5066480;28;19913;-71
2022/12/03 01:09:05;;;;;;;;;;;28.20;82.30;;;;;;5072586;28;19995;-71
2022/12/03 01:11:38;;;;;;;;;;;28.80;82.80;;;;;;5073323;28;20317;-72
2022/12/03 01:14:05;;;;;;;;;;;29.50;80.80;;;;;;5070790;28;19913;-71
2022/12/03 01:16:32;;;;;;;;;;;30.00;80.10;;;;;;5065989;28;19921;-71
2022/12/03 01:18:59;;;;;;;;;;;30.40;79.60;;;;;;5041523;28;19942;-71
2022/12/03 01:21:26;;;;;;;;;;;30.80;80.70;;;;;;5069851;28;19925;-71
2022/12/03 01:23:52;;;;;;;;;;;31.00;79.50;;;;;;5067865;28;19912;-70
2022/12/03 01:26:19;;;;;;;;;;;31.00;75.60;;;;;;5065115;28;20279;-69
2022/12/03 01:28:46;;;;;;;;;;;30.90;77.30;;;;;;5048108;28;19940;-72
2022/12/03 01:33:57;;;;;;;;;;;31.40;76.50;;;;;;5068670;28;20038;-71
2022/12/03 01:36:24;;;;;;;;;;;31.00;74.20;;;;;;5067581;28;19916;-74
2022/12/03 01:38:50;;;;;;;;;;;30.50;74.50;;;;;;5067086;28;19960;-71
2022/12/03 01:41:18;;;;;;;;;;;30.40;76.10;;;;;;5054651;28;19967;-71
2022/12/03 01:43:45;;;;;;;;;;;30.60;74.90;;;;;;5066738;28;19912;-70
2022/12/03 01:46:13;;;;;;;;;;;30.50;73.30;;;;;;5069227;28;20281;-71
2022/12/03 01:48:39;;;;;;;;;;;30.40;76.80;;;;;;5068255;28;19913;-72
2022/12/03 01:51:06;;;;;;;;;;;30.60;74.10;;;;;;5062445;28;19958;-70
2022/12/03 01:53:33;;;;;;;;;;;30.30;73.90;;;;;;5069192;28;20504;-71
2022/12/03 01:56:00;;;;;;;;;;;30.10;74.00;;;;;;5059877;28;20278;-73
2022/12/03 01:58:29;;;;;;;;;;;30.40;76.40;;;;;;5060008;28;19967;-71
2022/12/03 02:00:57;;;;;;;;;;;30.70;74.10;;;;;;5066644;28;19967;-71
2022/12/03 02:03:25;;;;;;;;;;;30.50;73.80;;;;;;5058180;28;19924;-72
2022/12/03 02:05:52;;;;;;;;;;;30.70;74.30;;;;;;5067130;28;19908;-71
2022/12/03 02:08:29;;;;;;;;;;;31.10;75.00;;;;;;5064596;28;19948;-71
2022/12/03 02:10:58;;;;;;;;;;;31.40;74.90;;;;;;5071238;28;20418;-71
2022/12/03 02:13:24;;;;;;;;;;;31.00;74.00;;;;;;5072460;28;19927;-71
2022/12/03 02:15:51;;;;;;;;;;;30.30;73.10;;;;;;5070623;28;20312;-72
2022/12/03 02:18:18;;;;;;;;;;;29.80;73.80;;;;;;5063393;28;20525;-71
2022/12/03 02:21:05;;;;;;;;;;;28.90;74.10;;;;;;5070557;28;19920;-72
2022/12/03 02:23:55;;;;;;;;;;;28.10;73.70;;;;;;5064046;28;19963;-71
2022/12/03 02:26:21;;;;;;;;;;;27.60;75.10;;;;;;5056726;28;20396;-70
2022/12/03 02:28:48;;;;;;;;;;;27.60;75.70;;;;;;5068812;28;20313;-72
2022/12/03 02:31:18;;;;;;;;;;;27.90;74.20;;;;;;5070669;28;19920;-71
2022/12/03 02:33:45;;;;;;;;;;;28.40;75.60;;;;;;5070552;28;19912;-73
2022/12/03 02:36:12;;;;;;;;;;;29.20;75.50;;;;;;5065291;28;19916;-72
2022/12/03 02:38:39;;;;;;;;;;;29.90;72.50;;;;;;5067793;28;20006;-71
2022/12/03 02:41:07;;;;;;;;;;;30.30;71.50;;;;;;5063547;28;19924;-73
2022/12/03 02:43:34;;;;;;;;;;;30.90;73.80;;;;;;5069560;28;19923;-71
2022/12/03 02:46:02;;;;;;;;;;;31.20;70.70;;;;;;5068857;28;19916;-71
2022/12/03 02:48:30;;;;;;;;;;;30.70;71.60;;;;;;5066014;28;20015;-71
2022/12/03 02:50:59;;;;;;;;;;;30.30;71.80;;;;;;5070309;28;19939;-72
2022/12/03 02:53:29;;;;;;;;;;;29.80;72.90;;;;;;5063242;28;19916;-73
2022/12/03 02:55:57;;;;;;;;;;;29.20;73.40;;;;;;5058856;28;19916;-70
2022/12/03 02:58:24;;;;;;;;;;;28.50;74.60;;;;;;5068697;28;19912;-73
2022/12/03 03:00:52;;;;;;;;;;;28.30;75.50;;;;;;5062814;28;19925;-72
2022/12/03 03:03:20;;;;;;;;;;;28.90;76.90;;;;;;5071590;28;20367;-74
2022/12/03 03:05:47;;;;;;;;;;;29.80;77.30;;;;;;5070621;28;19912;-74
2022/12/03 03:08:14;;;;;;;;;;;30.50;73.80;;;;;;5070867;28;19920;-74
2022/12/03 03:10:41;;;;;;;;;;;31.00;73.20;;;;;;5069524;28;19923;-72
2022/12/03 03:13:16;;;;;;;;;;;31.60;75.10;;;;;;5065266;28;20382;-75
2022/12/03 03:15:43;;;;;;;;;;;31.90;73.70;;;;;;5070878;28;19913;-71
2022/12/03 03:18:10;;;;;;;;;;;31.60;70.90;;;;;;5069152;28;19913;-73
2022/12/03 03:20:37;;;;;;;;;;;30.60;71.50;;;;;;5071239;28;20354;-73
2022/12/03 03:23:16;;;;;;;;;;;29.60;74.20;;;;;;5071029;28;20007;-74
2022/12/03 03:25:47;;;;;;;;;;;28.70;77.30;;;;;;5070292;28;19951;-74
2022/12/03 03:28:15;;;;;;;;;;;28.00;80.10;;;;;;5064714;28;19942;-73
2022/12/03 03:30:42;;;;;;;;;;;27.60;81.20;;;;;;5071207;28;19913;-74
2022/12/03 03:33:10;;;;;;;;;;;27.40;83.00;;;;;;5070825;28;19913;-75
2022/12/03 03:35:36;;;;;;;;;;;27.90;82.50;;;;;;5068016;28;19913;-73
2022/12/03 03:38:04;;;;;;;;;;;28.60;82.50;;;;;;5062343;28;19913;-74
2022/12/03 03:40:30;;;;;;;;;;;28.60;81.00;;;;;;5064653;28;19993;-71
2022/12/03 03:42:57;;;;;;;;;;;28.80;81.20;;;;;;5060113;28;20329;-73
2022/12/03 03:45:24;;;;;;;;;;;29.30;80.40;;;;;;5061147;28;19935;-74
2022/12/03 03:47:51;;;;;;;;;;;29.80;80.50;;;;;;5069179;28;20015;-72
2022/12/03 03:50:18;;;;;;;;;;;30.10;79.90;;;;;;5066735;28;19913;-74
2022/12/03 03:52:46;;;;;;;;;;;30.30;80.30;;;;;;5061901;28;19940;-75
2022/12/03 03:55:12;;;;;;;;;;;30.50;80.30;;;;;;5070190;28;19912;-76
2022/12/03 03:57:39;;;;;;;;;;;30.50;79.70;;;;;;5065880;28;19917;-73
2022/12/03 04:00:07;;;;;;;;;;;30.60;79.20;;;;;;5061390;28;20350;-73
2022/12/03 04:02:34;;;;;;;;;;;30.20;79.20;;;;;;5070368;28;19934;-73
2022/12/03 04:05:00;;;;;;;;;;;29.60;80.20;;;;;;5070766;28;20282;-73
2022/12/03 04:07:27;;;;;;;;;;;29.40;80.10;;;;;;5067310;28;20806;-72
2022/12/03 04:09:54;;;;;;;;;;;29.50;81.50;;;;;;5068749;28;20386;-72
2022/12/03 04:15:05;;;;;;;;;;;29.70;79.20;;;;;;5064168;28;19965;-72
2022/12/03 04:17:32;;;;;;;;;;;29.80;79.90;;;;;;5067357;28;19961;-76
2022/12/03 04:19:59;;;;;;;;;;;29.80;80.10;;;;;;5067502;28;20561;-73
2022/12/03 04:22:40;;;;;;;;;;;29.90;79.40;;;;;;5068894;28;19916;-73
2022/12/03 04:30:37;;;;;;;;;;;29.60;80.00;;;;;;5071570;28;19927;-73
2022/12/03 04:35:48;;;;;;;;;;;29.40;80.70;;;;;;5061918;28;20421;-75
2022/12/03 04:38:15;;;;;;;;;;;29.30;80.90;;;;;;5072747;28;19959;-74
2022/12/03 04:41:00;;;;;;;;;;;29.20;81.60;;;;;;5072850;28;19921;-74
2022/12/03 04:43:28;;;;;;;;;;;29.10;80.40;;;;;;5059124;28;20344;-72
2022/12/03 04:45:54;;;;;;;;;;;29.20;81.90;;;;;;5062090;28;19923;-72
2022/12/03 04:48:21;;;;;;;;;;;29.40;81.10;;;;;;5073455;28;19971;-73
2022/12/03 04:50:48;;;;;;;;;;;29.40;80.80;;;;;;5072039;28;20274;-73
2022/12/03 04:53:14;;;;;;;;;;;29.30;79.50;;;;;;5068217;28;19912;-73
2022/12/03 04:55:41;;;;;;;;;;;28.80;81.00;;;;;;5063350;28;19920;-73
2022/12/03 04:58:08;;;;;;;;;;;28.10;81.40;;;;;;5053930;28;19917;-73
2022/12/03 05:00:34;;;;;;;;;;;27.80;82.20;;;;;;5071709;28;19924;-74
2022/12/03 05:03:01;;;;;;;;;;;27.90;81.70;;;;;;5062115;28;20010;-73
2022/12/03 05:05:28;;;;;;;;;;;28.00;82.00;;;;;;5069752;28;20393;-73
2022/12/03 05:07:54;;;;;;;;;;;28.10;82.20;;;;;;5071457;28;20438;-74
2022/12/03 05:10:21;;;;;;;;;;;28.30;82.10;;;;;;5071797;28;19928;-72
2022/12/03 05:12:48;;;;;;;;;;;28.50;81.50;;;;;;5065638;28;19928;-73
2022/12/03 05:15:14;;;;;;;;;;;28.60;81.00;;;;;;5064620;28;20263;-73
2022/12/03 05:17:41;;;;;;;;;;;28.60;82.50;;;;;;5071441;28;19923;-74
2022/12/03 05:20:42;;;;;;;;;;;28.40;81.30;;;;;;5042966;28;20163;-73
2022/12/03 05:23:10;;;;;;;;;;;28.40;81.20;;;;;;5066960;28;19913;-75
2022/12/03 05:25:36;;;;;;;;;;;28.40;81.50;;;;;;5063255;28;19919;-73
2022/12/03 05:28:03;;;;;;;;;;;28.30;81.40;;;;;;5066011;28;19920;-73
2022/12/03 05:30:30;;;;;;;;;;;28.30;81.30;;;;;;5068762;28;20444;-73
2022/12/03 05:32:57;;;;;;;;;;;28.30;81.60;;;;;;5045852;28;19924;-73
2022/12/03 05:35:24;;;;;;;;;;;28.30;81.40;;;;;;5063855;28;19912;-74
2022/12/03 05:37:50;;;;;;;;;;;28.30;81.90;;;;;;5070898;28;19912;-74
2022/12/03 05:40:17;;;;;;;;;;;28.20;81.80;;;;;;5070949;28;20356;-73
2022/12/03 05:42:53;;;;;;;;;;;28.10;81.40;;;;;;5063926;28;19913;-72
2022/12/03 05:45:27;;;;;;;;;;;28.00;81.60;;;;;;5064940;28;19912;-69
2022/12/03 05:47:54;;;;;;;;;;;27.90;81.40;;;;;;5062050;28;19916;-74
2022/12/03 05:50:22;;;;;;;;;;;27.70;81.20;;;;;;5064122;28;20616;-73
2022/12/03 05:52:49;;;;;;;;;;;27.50;81.90;;;;;;5062615;28;19925;-72
2022/12/03 05:55:16;;;;;;;;;;;27.50;82.60;;;;;;5067292;28;19982;-72
2022/12/03 05:57:43;;;;;;;;;;;27.40;82.00;;;;;;5067919;28;20367;-72
2022/12/03 06:00:15;;;;;;;;;;;27.30;82.00;;;;;;5067846;28;20363;-72
2022/12/03 06:02:42;;;;;;;;;;;27.30;82.50;;;;;;5068854;28;20518;-73
2022/12/03 06:05:10;;;;;;;;;;;27.40;82.80;;;;;;5070299;28;19934;-72
2022/12/03 06:07:37;;;;;;;;;;;27.30;82.60;;;;;;5056438;28;19987;-73
2022/12/03 06:10:04;;;;;;;;;;;27.30;82.60;;;;;;5070342;28;19916;-74
2022/12/03 06:12:31;;;;;;;;;;;27.30;82.30;;;;;;5065281;28;20489;-73
2022/12/03 06:14:58;;;;;;;;;;;27.20;82.30;;;;;;5064710;28;19913;-71
2022/12/03 06:17:25;;;;;;;;;;;27.20;82.30;;;;;;5065361;28;19912;-72
2022/12/03 06:19:52;;;;;;;;;;;27.10;82.50;;;;;;5060985;28;20371;-73
2022/12/03 06:22:19;;;;;;;;;;;27.00;82.90;;;;;;5060579;28;19973;-73
2022/12/03 06:24:46;;;;;;;;;;;27.00;83.00;;;;;;5062020;28;19916;-73
2022/12/03 06:27:12;;;;;;;;;;;26.90;83.20;;;;;;5059455;28;21789;-72
2022/12/03 06:29:39;;;;;;;;;;;26.90;82.70;;;;;;5059038;28;19917;-71
2022/12/03 06:32:06;;;;;;;;;;;26.70;83.20;;;;;;5055466;28;19935;-72
2022/12/03 06:34:32;;;;;;;;;;;26.50;83.60;;;;;;5055800;28;19923;-73
2022/12/03 06:36:59;;;;;;;;;;;26.50;83.90;;;;;;5061947;28;20722;-73
2022/12/03 06:39:26;;;;;;;;;;;26.40;83.70;;;;;;5062827;28;19973;-72
2022/12/03 06:41:53;;;;;;;;;;;26.40;83.80;;;;;;5067161;28;19917;-73
2022/12/03 06:44:20;;;;;;;;;;;26.40;83.90;;;;;;5044882;28;20286;-71
2022/12/03 06:46:47;;;;;;;;;;;26.40;84.10;;;;;;5052752;28;20346;-72
2022/12/03 06:49:13;;;;;;;;;;;26.30;84.10;;;;;;5055013;28;19920;-71
2022/12/03 06:51:40;;;;;;;;;;;26.30;84.10;;;;;;5036858;28;19990;-72
2022/12/03 06:54:07;;;;;;;;;;;26.30;84.00;;;;;;5066385;28;20367;-73
2022/12/03 06:56:34;;;;;;;;;;;26.20;84.60;;;;;;5062208;28;20011;-71
2022/12/03 06:59:00;;;;;;;;;;;26.20;84.60;;;;;;5058690;28;19920;-71
2022/12/03 07:01:27;;;;;;;;;;;26.20;84.50;;;;;;5054092;28;20378;-72
2022/12/03 07:03:53;;;;;;;;;;;26.10;84.70;;;;;;5061963;28;19951;-76
2022/12/03 07:06:20;;;;;;;;;;;26.10;85.20;;;;;;5061391;28;19997;-73
2022/12/03 07:08:47;;;;;;;;;;;25.90;85.00;;;;;;5064010;28;19916;-72
2022/12/03 07:11:38;;;;;;;;;;;25.80;85.70;;;;;;5061994;28;19930;-72
2022/12/03 07:14:06;;;;;;;;;;;25.70;85.80;;;;;;5063662;28;19920;-73
2022/12/03 07:16:34;;;;;;;;;;;25.60;86.00;;;;;;5066553;28;19912;-72
2022/12/03 07:19:01;;;;;;;;;;;25.50;86.50;;;;;;5062954;28;20015;-73
2022/12/03 07:21:27;;;;;;;;;;;25.50;86.80;;;;;;5061606;28;19923;-72
2022/12/03 07:23:54;;;;;;;;;;;25.50;86.30;;;;;;5064897;28;19912;-73
2022/12/03 07:26:20;;;;;;;;;;;25.50;86.50;;;;;;5063146;28;20371;-74
2022/12/03 07:28:47;;;;;;;;;;;25.50;86.10;;;;;;5071449;28;20438;-74
2022/12/03 07:31:14;;;;;;;;;;;25.30;86.20;;;;;;5068935;28;19912;-74
2022/12/03 07:33:41;;;;;;;;;;;25.30;86.50;;;;;;5067572;28;19916;-74
2022/12/03 07:36:12;;;;;;;;;;;25.20;86.90;;;;;;5069686;28;20632;-73
2022/12/03 07:38:38;;;;;;;;;;;25.20;87.00;;;;;;5070247;28;19916;-72
2022/12/03 07:41:05;;;;;;;;;;;25.10;86.90;;;;;;5063816;28;20383;-74
2022/12/03 07:43:32;;;;;;;;;;;24.80;87.60;;;;;;5071275;28;19912;-73
2022/12/03 07:45:59;;;;;;;;;;;24.60;88.40;;;;;;5068828;28;19924;-74
2022/12/03 07:48:25;;;;;;;;;;;24.60;88.50;;;;;;5070589;28;20283;-71
2022/12/03 07:50:52;;;;;;;;;;;24.50;88.80;;;;;;5065748;28;19927;-74
2022/12/03 07:53:19;;;;;;;;;;;24.40;88.80;;;;;;5069149;28;20375;-72
2022/12/03 07:55:45;;;;;;;;;;;24.30;89.40;;;;;;5070295;28;19987;-72
2022/12/03 07:58:12;;;;;;;;;;;24.30;89.40;;;;;;5074126;28;20429;-75
2022/12/03 08:00:39;;;;;;;;;;;24.20;89.40;;;;;;5070416;28;20374;-73
2022/12/03 08:03:05;;;;;;;;;;;24.10;89.80;;;;;;5072687;28;19970;-75
2022/12/03 08:05:32;;;;;;;;;;;24.00;89.80;;;;;;5069375;28;19912;-74
2022/12/03 08:07:59;;;;;;;;;;;23.90;90.10;;;;;;5062962;28;19920;-72
2022/12/03 08:10:26;;;;;;;;;;;23.90;90.10;;;;;;5069530;28;19913;-73
2022/12/03 08:12:58;;;;;;;;;;;23.80;90.10;;;;;;5075169;28;19920;-73
2022/12/03 08:15:26;;;;;;;;;;;23.80;90.20;;;;;;5070460;28;19917;-72
2022/12/03 08:18:00;;;;;;;;;;;23.60;90.40;;;;;;5069811;28;19970;-74
2022/12/03 08:20:38;;;;;;;;;;;23.60;90.60;;;;;;5069778;28;20028;-72
2022/12/03 08:23:15;;;;;;;;;;;23.40;90.80;;;;;;5070856;28;20003;-73
2022/12/03 08:25:42;;;;;;;;;;;23.20;91.10;;;;;;5068234;28;20515;-72
2022/12/03 08:28:17;;;;;;;;;;;23.10;91.60;;;;;;5072562;28;20421;-74
2022/12/03 08:30:48;;;;;;;;;;;22.90;91.70;;;;;;5066025;28;20009;-73
2022/12/03 08:33:15;;;;;;;;;;;22.90;91.80;;;;;;5068097;28;19913;-73
2022/12/03 08:35:43;;;;;;;;;;;22.80;91.70;;;;;;5063241;28;19917;-74
2022/12/03 08:38:11;;;;;;;;;;;22.80;91.80;;;;;;5067291;28;19913;-72
2022/12/03 08:40:41;;;;;;;;;;;22.70;91.80;;;;;;5065244;28;19939;-70
2022/12/03 08:43:24;;;;;;;;;;;22.50;91.90;;;;;;5059066;28;19956;-73
2022/12/03 08:45:52;;;;;;;;;;;22.30;91.90;;;;;;5070440;28;20015;-72
2022/12/03 08:48:19;;;;;;;;;;;22.20;91.90;;;;;;5066037;28;19973;-71
2022/12/03 08:50:45;;;;;;;;;;;22.00;91.90;;;;;;5069992;28;19912;-71
2022/12/03 08:53:12;;;;;;;;;;;21.90;92.00;;;;;;5071011;28;20286;-72
2022/12/03 08:55:51;;;;;;;;;;;21.80;91.80;;;;;;5067335;28;19923;-72
2022/12/03 08:58:21;;;;;;;;;;;21.60;92.10;;;;;;5074391;28;20385;-72
2022/12/03 09:00:51;;;;;;;;;;;21.50;91.90;;;;;;5070946;28;19947;-74
2022/12/03 09:03:18;;;;;;;;;;;21.50;92.00;;;;;;5062516;28;19916;-71
2022/12/03 09:05:45;;;;;;;;;;;21.50;91.90;;;;;;5071004;28;19966;-72
2022/12/03 09:08:12;;;;;;;;;;;21.50;92.00;;;;;;5063300;28;19965;-73
2022/12/03 09:10:39;;;;;;;;;;;21.40;92.10;;;;;;5066145;28;20286;-73
2022/12/03 09:13:05;;;;;;;;;;;21.40;92.20;;;;;;5070257;28;20298;-72
2022/12/03 09:15:32;;;;;;;;;;;21.40;92.40;;;;;;5066877;28;20555;-72
2022/12/03 09:17:58;;;;;;;;;;;21.40;92.70;;;;;;5071067;28;19923;-73
2022/12/03 09:20:25;;;;;;;;;;;21.20;92.90;;;;;;5072166;28;19956;-72
2022/12/03 09:22:52;;;;;;;;;;;21.20;93.10;;;;;;5068057;28;19920;-72
2022/12/03 09:25:19;;;;;;;;;;;21.10;93.40;;;;;;5066500;28;20398;-72
2022/12/03 09:27:45;;;;;;;;;;;21.00;93.60;;;;;;5068600;28;19912;-71
2022/12/03 09:30:13;;;;;;;;;;;20.90;93.90;;;;;;5064729;28;20355;-73
2022/12/03 09:32:40;;;;;;;;;;;20.80;94.10;;;;;;5062949;28;19912;-72
2022/12/03 09:35:08;;;;;;;;;;;20.80;94.30;;;;;;5052504;28;19912;-73
2022/12/03 09:37:34;;;;;;;;;;;20.70;94.50;;;;;;5056922;28;19917;-72
2022/12/03 09:40:01;;;;;;;;;;;20.70;94.60;;;;;;5063912;28;19960;-74
2022/12/03 09:42:28;;;;;;;;;;;20.70;94.80;;;;;;5061906;28;19923;-73
2022/12/03 09:44:54;;;;;;;;;;;20.60;95.50;;;;;;5067147;28;20135;-73
2022/12/03 09:47:21;;;;;;;;;;;20.50;95.20;;;;;;5063425;28;20066;-72
2022/12/03 09:49:48;;;;;;;;;;;20.50;95.60;;;;;;5059036;28;19913;-72
2022/12/03 09:52:19;;;;;;;;;;;20.40;95.80;;;;;;5070575;28;19939;-72
2022/12/03 09:54:45;;;;;;;;;;;20.20;95.80;;;;;;5067449;28;19916;-72
2022/12/03 09:57:12;;;;;;;;;;;20.20;95.90;;;;;;5067859;28;19952;-72
2022/12/03 09:59:39;;;;;;;;;;;20.10;96.10;;;;;;5066647;28;19924;-72
2022/12/03 10:02:24;;;;;;;;;;;20.00;96.50;;;;;;5071778;28;19920;-71
2022/12/03 10:04:52;;;;;;;;;;;20.00;96.60;;;;;;5064019;28;20508;-72
2022/12/03 10:07:19;;;;;;;;;;;19.90;96.70;;;;;;5060962;28;19953;-72
2022/12/03 10:09:46;;;;;;;;;;;19.80;96.70;;;;;;5071796;28;19912;-72
2022/12/03 10:12:13;;;;;;;;;;;19.80;97.00;;;;;;5073694;28;19966;-73
2022/12/03 10:14:40;;;;;;;;;;;19.70;97.30;;;;;;5070132;28;19916;-73
2022/12/03 10:17:07;;;;;;;;;;;19.60;97.60;;;;;;5067303;28;20251;-72
2022/12/03 10:19:36;;;;;;;;;;;19.60;97.80;;;;;;5069130;28;19966;-72
2022/12/03 10:22:03;;;;;;;;;;;19.50;98.00;;;;;;5069762;28;20281;-73
2022/12/03 10:24:31;;;;;;;;;;;19.60;98.20;;;;;;5077923;28;19913;-73
2022/12/03 10:26:59;;;;;;;;;;;19.50;98.30;;;;;;5071400;28;19917;-72
2022/12/03 10:29:26;;;;;;;;;;;19.50;98.60;;;;;;5069369;28;20067;-72
2022/12/03 10:31:55;;;;;;;;;;;19.50;98.80;;;;;;5065309;28;20503;-71
2022/12/03 10:34:33;;;;;;;;;;;19.40;98.80;;;;;;5055726;28;20003;-72
2022/12/03 10:37:09;;;;;;;;;;;19.30;99.00;;;;;;5065145;28;19913;-73
2022/12/03 10:39:55;;;;;;;;;;;19.20;99.40;;;;;;5058748;28;20005;-73
2022/12/03 10:42:22;;;;;;;;;;;19.20;99.60;;;;;;5063777;28;19912;-72
2022/12/03 10:44:52;;;;;;;;;;;19.10;99.80;;;;;;5056452;28;19927;-74
2022/12/03 10:47:21;;;;;;;;;;;19.10;99.90;;;;;;5055797;28;19985;-71
2022/12/03 10:50:00;;;;;;;;;;;19.00;99.90;;;;;;5062220;28;19916;-72
2022/12/03 10:52:26;;;;;;;;;;;19.00;99.90;;;;;;5066337;28;20043;-70
2022/12/03 10:54:53;;;;;;;;;;;18.90;99.90;;;;;;5069289;28;19920;-72
2022/12/03 10:57:20;;;;;;;;;;;18.90;99.90;;;;;;5065259;28;19917;-71
2022/12/03 10:59:47;;;;;;;;;;;18.90;99.90;;;;;;5070207;28;20286;-71
2022/12/03 11:02:19;;;;;;;;;;;18.80;99.90;;;;;;5067395;28;19913;-72
2022/12/03 11:04:46;;;;;;;;;;;18.80;99.90;;;;;;5069422;28;19928;-74
2022/12/03 11:07:20;;;;;;;;;;;18.80;99.90;;;;;;5058257;28;19924;-73
2022/12/03 11:09:48;;;;;;;;;;;18.70;99.90;;;;;;5056139;28;19920;-74
2022/12/03 11:12:23;;;;;;;;;;;18.70;99.90;;;;;;5068042;28;19931;-72
2022/12/03 11:14:50;;;;;;;;;;;18.70;99.90;;;;;;5069213;28;19917;-72
2022/12/03 11:17:34;;;;;;;;;;;18.60;99.90;;;;;;5068937;28;20130;-72
2022/12/03 11:20:01;;;;;;;;;;;18.50;99.90;;;;;;5057559;28;19971;-72
2022/12/03 11:22:38;;;;;;;;;;;18.50;99.90;;;;;;5066060;28;19999;-72
2022/12/03 11:25:22;;;;;;;;;;;18.60;99.90;;;;;;5070382;28;20046;-72
2022/12/03 11:28:07;;;;;;;;;;;18.60;99.90;;;;;;5066835;28;19931;-72
2022/12/03 11:31:00;;;;;;;;;;;18.60;99.90;;;;;;5058713;28;19955;-72
2022/12/03 11:33:30;;;;;;;;;;;18.70;99.90;;;;;;5057889;28;19917;-72
2022/12/03 11:36:03;;;;;;;;;;;18.80;99.90;;;;;;5068773;28;19970;-72
2022/12/03 11:38:50;;;;;;;;;;;18.80;99.90;;;;;;5067602;28;19948;-72
2022/12/03 11:41:18;;;;;;;;;;;18.90;99.90;;;;;;5059066;28;19924;-72
2022/12/03 11:43:51;;;;;;;;;;;18.90;99.90;;;;;;5066968;28;19917;-72
2022/12/03 11:46:22;;;;;;;;;;;18.90;99.90;;;;;;5066899;28;19927;-72
2022/12/03 11:48:50;;;;;;;;;;;18.90;99.90;;;;;;5060353;28;19920;-72
2022/12/03 11:51:18;;;;;;;;;;;18.90;99.90;;;;;;5065695;28;19913;-73
2022/12/03 11:53:45;;;;;;;;;;;18.90;99.90;;;;;;5059302;28;19947;-72
2022/12/03 11:56:28;;;;;;;;;;;18.80;99.90;;;;;;5058939;28;20275;-73
2022/12/03 11:58:59;;;;;;;;;;;18.80;99.90;;;;;;5059752;28;19919;-74
2022/12/03 12:01:36;;;;;;;;;;;18.70;99.90;;;;;;5058414;28;20042;-75
2022/12/03 12:04:03;;;;;;;;;;;18.60;99.90;;;;;;5062973;28;19920;-73
2022/12/03 12:06:40;;;;;;;;;;;18.60;99.90;;;;;;5059486;28;19912;-76
2022/12/03 12:09:06;;;;;;;;;;;18.50;99.90;;;;;;5058606;28;20371;-72
2022/12/03 12:11:34;;;;;;;;;;;18.40;99.90;;;;;;5062107;28;19973;-71
2022/12/03 12:14:05;;;;;;;;;;;18.40;99.90;;;;;;5065682;28;19916;-73
2022/12/03 12:16:48;;;;;;;;;;;18.40;99.90;;;;;;5063857;28;19916;-71
2022/12/03 12:19:33;;;;;;;;;;;18.30;99.90;;;;;;5061463;28;20081;-73
2022/12/03 12:22:18;;;;;;;;;;;18.20;99.90;;;;;;5062787;28;19913;-73
2022/12/03 12:24:50;;;;;;;;;;;18.20;99.90;;;;;;5068704;28;20347;-74
2022/12/03 12:27:30;;;;;;;;;;;18.10;99.90;;;;;;5068796;28;19913;-71
2022/12/03 12:29:58;;;;;;;;;;;18.10;99.90;;;;;;5060225;28;19976;-73
2022/12/03 12:32:27;;;;;;;;;;;18.00;99.90;;;;;;5068423;28;20011;-73
2022/12/03 12:34:56;;;;;;;;;;;18.00;99.90;;;;;;5063174;28;19917;-74
2022/12/03 12:37:34;;;;;;;;;;;17.90;99.90;;;;;;5067729;28;19917;-73
2022/12/03 12:40:01;;;;;;;;;;;17.80;99.90;;;;;;5064594;28;19968;-73
2022/12/03 12:42:32;;;;;;;;;;;17.80;99.90;;;;;;5069598;28;19923;-73
2022/12/03 12:45:11;;;;;;;;;;;17.80;99.90;;;;;;5066626;28;19982;-73
2022/12/03 12:47:46;;;;;;;;;;;17.70;99.90;;;;;;5070352;28;19974;-74
2022/12/03 12:50:13;;;;;;;;;;;17.60;99.90;;;;;;5066937;28;20423;-73
2022/12/03 12:52:47;;;;;;;;;;;17.60;99.90;;;;;;5069811;28;19913;-73
2022/12/03 12:55:15;;;;;;;;;;;17.60;99.90;;;;;;5067918;28;19916;-74
2022/12/03 12:57:42;;;;;;;;;;;17.50;99.90;;;;;;5070952;28;19912;-73
2022/12/03 13:00:16;;;;;;;;;;;17.50;99.90;;;;;;5066496;28;20442;-73
2022/12/03 13:03:02;;;;;;;;;;;17.50;99.90;;;;;;5068580;28;19912;-73
2022/12/03 13:05:38;;;;;;;;;;;17.40;99.90;;;;;;5068503;28;19920;-74
2022/12/03 13:08:22;;;;;;;;;;;17.40;99.90;;;;;;5071808;28;19923;-73
2022/12/03 13:10:49;;;;;;;;;;;17.30;99.90;;;;;;5059775;28;19917;-73
2022/12/03 13:13:28;;;;;;;;;;;17.20;99.90;;;;;;5070513;28;19920;-74
2022/12/03 13:16:02;;;;;;;;;;;17.20;99.90;;;;;;5045165;28;19934;-74
2022/12/03 13:18:31;;;;;;;;;;;17.20;99.90;;;;;;5070581;28;19916;-73
2022/12/03 13:20:58;;;;;;;;;;;17.20;99.90;;;;;;5069796;28;19928;-73
2022/12/03 13:23:30;;;;;;;;;;;17.20;99.90;;;;;;5072338;28;20275;-73
2022/12/03 13:25:58;;;;;;;;;;;17.10;99.90;;;;;;5069908;28;19920;-72
2022/12/03 13:28:25;;;;;;;;;;;17.10;99.90;;;;;;5068679;28;19916;-73
2022/12/03 13:30:54;;;;;;;;;;;17.00;99.90;;;;;;5070610;28;19916;-72
2022/12/03 13:33:27;;;;;;;;;;;17.00;99.90;;;;;;5069814;28;19916;-71
2022/12/03 13:35:57;;;;;;;;;;;16.90;99.90;;;;;;5069160;28;19916;-72
2022/12/03 13:38:24;;;;;;;;;;;16.90;99.90;;;;;;5068390;28;19954;-72
2022/12/03 13:41:01;;;;;;;;;;;16.90;99.90;;;;;;5062354;28;19924;-72
2022/12/03 13:43:29;;;;;;;;;;;16.80;99.90;;;;;;5066041;28;19921;-71
2022/12/03 13:45:56;;;;;;;;;;;16.80;99.90;;;;;;5066846;28;19930;-75
2022/12/03 13:48:24;;;;;;;;;;;16.80;99.90;;;;;;5063807;28;20319;-70
2022/12/03 13:50:51;;;;;;;;;;;16.70;99.90;;;;;;5061230;28;19924;-73
2022/12/03 13:53:24;;;;;;;;;;;16.70;99.90;;;;;;5071255;28;19913;-74
2022/12/03 13:56:03;;;;;;;;;;;16.70;99.90;;;;;;5064226;28;19916;-74
2022/12/03 13:58:30;;;;;;;;;;;16.60;99.90;;;;;;5068390;28;20027;-75
2022/12/03 14:00:56;;;;;;;;;;;16.60;99.90;;;;;;5070491;28;19921;-72
2022/12/03 14:03:23;;;;;;;;;;;16.60;99.90;;;;;;5065416;28;19920;-73
2022/12/03 14:05:49;;;;;;;;;;;16.60;99.90;;;;;;5067562;28;19938;-72
2022/12/03 14:08:16;;;;;;;;;;;16.60;99.90;;;;;;5068060;28;20012;-74
2022/12/03 14:10:43;;;;;;;;;;;16.50;99.90;;;;;;5060961;28;19913;-73
2022/12/03 14:13:10;;;;;;;;;;;16.60;99.90;;;;;;5065644;28;20367;-71
2022/12/03 14:15:37;;;;;;;;;;;16.50;99.90;;;;;;5064701;28;19977;-72
2022/12/03 14:18:03;;;;;;;;;;;16.50;99.90;;;;;;5064692;28;19963;-73
2022/12/03 14:20:30;;;;;;;;;;;16.50;99.90;;;;;;5068906;28;19921;-72
2022/12/03 14:22:57;;;;;;;;;;;16.50;99.90;;;;;;5071182;28;19963;-74
2022/12/03 14:25:23;;;;;;;;;;;16.50;99.90;;;;;;5072351;28;20281;-72
2022/12/03 14:27:50;;;;;;;;;;;16.40;99.90;;;;;;5054850;28;20329;-73
2022/12/03 14:30:16;;;;;;;;;;;16.40;99.90;;;;;;5060881;28;19917;-71
2022/12/03 14:32:43;;;;;;;;;;;16.40;99.90;;;;;;5070307;28;19919;-73
2022/12/03 14:35:10;;;;;;;;;;;16.30;99.90;;;;;;5069742;28;19956;-73
2022/12/03 14:37:37;;;;;;;;;;;16.30;99.90;;;;;;5067636;28;19920;-74
2022/12/03 14:40:05;;;;;;;;;;;16.30;99.90;;;;;;5065686;28;19929;-73